Time;durP1;ratioP1;P1;durP2;ratioP2;P2;SDS_P1;SDS_P2;PMS_P1;PMS_P2;Temp;Humidity;BMP_temperature;BMP_pressure;BME280_temperature;BME280_humidity;BME280_pressure;Samples;Min_cycle;Max_cycle;Signal;HPM_P1;HPM_P2
2022/09/01 00:01:25;;;;;;;6.80;4.50;;;;;;;;;;5052731;28;20025;-74
2022/09/01 00:03:52;;;;;;;5.20;4.38;;;;;;;;;;5039338;28;20116;-75
2022/09/01 00:06:21;;;;;;;8.73;4.90;;;;;;;;;;5033467;28;20025;-72
2022/09/01 00:08:48;;;;;;;7.65;4.05;;;;;;;;;;5033535;28;20033;-74
2022/09/01 00:11:14;;;;;;;6.13;4.50;;;;;;;;;;5033473;28;20112;-74
2022/09/01 00:13:41;;;;;;;8.77;5.38;;;;;;;;;;5032497;28;20030;-73
2022/09/01 00:16:07;;;;;;;5.28;3.90;;;;;;;;;;5044804;28;20029;-75
2022/09/01 00:18:34;;;;;;;9.00;4.85;;;;;;;;;;5035853;28;20368;-76
2022/09/01 00:21:00;;;;;;;11.25;5.15;;;;;;;;;;5035869;28;20014;-75
2022/09/01 00:23:27;;;;;;;9.90;5.05;;;;;;;;;;5032051;28;20033;-73
2022/09/01 00:25:53;;;;;;;6.65;5.03;;;;;;;;;;5031928;28;20025;-75
2022/09/01 00:28:19;;;;;;;7.50;4.88;;;;;;;;;;5033252;28;20037;-73
2022/09/01 00:30:45;;;;;;;6.50;4.88;;;;;;;;;;5037879;28;20487;-74
2022/09/01 00:33:11;;;;;;;8.50;5.45;;;;;;;;;;5031918;28;20040;-72
2022/09/01 00:35:37;;;;;;;7.97;4.78;;;;;;;;;;5032959;28;20056;-74
2022/09/01 00:38:03;;;;;;;7.68;4.85;;;;;;;;;;5032893;28;20084;-73
2022/09/01 00:40:30;;;;;;;8.10;4.70;;;;;;;;;;5033276;28;20040;-73
2022/09/01 00:42:56;;;;;;;8.32;4.85;;;;;;;;;;5033018;28;20018;-73
2022/09/01 00:45:22;;;;;;;6.97;4.53;;;;;;;;;;5033127;28;20178;-74
2022/09/01 00:47:48;;;;;;;4.90;4.40;;;;;;;;;;5032532;28;20483;-74
2022/09/01 00:50:16;;;;;;;8.55;4.85;;;;;;;;;;5033087;28;20057;-74
2022/09/01 00:52:45;;;;;;;9.90;4.43;;;;;;;;;;5032741;28;20022;-74
2022/09/01 00:55:14;;;;;;;5.97;4.32;;;;;;;;;;5033081;28;20036;-73
2022/09/01 00:57:40;;;;;;;8.23;4.85;;;;;;;;;;5032619;28;20100;-74
2022/09/01 01:00:13;;;;;;;7.28;4.53;;;;;;;;;;5037990;28;20116;-76
2022/09/01 01:02:43;;;;;;;8.48;4.47;;;;;;;;;;5032540;28;20026;-73
2022/09/01 01:05:10;;;;;;;8.10;4.78;;;;;;;;;;5032788;28;20022;-72
2022/09/01 01:07:41;;;;;;;6.72;4.85;;;;;;;;;;5031213;28;20029;-75
2022/09/01 01:10:09;;;;;;;6.82;5.30;;;;;;;;;;5032503;28;20487;-75
2022/09/01 01:12:36;;;;;;;9.32;5.13;;;;;;;;;;5030987;28;20033;-76
2022/09/01 01:15:05;;;;;;;140.88;82.97;;;;;;;;;;5039742;28;20013;-73
2022/09/01 01:17:31;;;;;;;67.53;33.80;;;;;;;;;;5035672;28;20385;-73
2022/09/01 01:23:01;;;;;;;34.38;17.40;;;;;;;;;;5032381;28;20036;-74
2022/09/01 01:25:41;;;;;;;9.93;6.57;;;;;;;;;;5032086;28;20068;-74
2022/09/01 01:28:13;;;;;;;8.07;6.00;;;;;;;;;;5031729;28;20087;-74
2022/09/01 01:30:40;;;;;;;7.00;5.25;;;;;;;;;;5037211;28;20025;-73
2022/09/01 01:33:07;;;;;;;6.47;5.10;;;;;;;;;;5032132;28;20053;-74
2022/09/01 01:35:33;;;;;;;6.72;5.18;;;;;;;;;;5031950;28;20025;-75
2022/09/01 01:38:01;;;;;;;5.82;4.93;;;;;;;;;;5030164;28;20506;-75
2022/09/01 01:40:28;;;;;;;6.80;5.03;;;;;;;;;;5031867;28;20096;-74
2022/09/01 01:42:56;;;;;;;7.80;4.82;;;;;;;;;;5030501;28;20028;-73
2022/09/01 01:45:23;;;;;;;9.48;4.82;;;;;;;;;;5031686;28;20487;-73
2022/09/01 01:47:52;;;;;;;7.55;5.10;;;;;;;;;;5031219;28;20028;-73
2022/09/01 01:50:19;;;;;;;6.32;4.18;;;;;;;;;;5030283;28;20021;-73
2022/09/01 01:52:46;;;;;;;7.25;4.82;;;;;;;;;;5031580;28;20072;-74
2022/09/01 01:55:12;;;;;;;10.02;4.50;;;;;;;;;;5031545;28;20021;-74
2022/09/01 01:57:47;;;;;;;7.32;4.07;;;;;;;;;;5031165;28;20017;-73
2022/09/01 02:00:18;;;;;;;7.93;4.93;;;;;;;;;;5035603;28;20086;-73
2022/09/01 02:02:46;;;;;;;9.75;4.70;;;;;;;;;;5031357;28;20025;-72
2022/09/01 02:05:12;;;;;;;4.72;4.25;;;;;;;;;;5029388;28;20439;-74
2022/09/01 02:07:42;;;;;;;4.38;3.97;;;;;;;;;;5029611;28;20018;-74
2022/09/01 02:10:08;;;;;;;7.88;4.03;;;;;;;;;;5028396;28;20018;-74
2022/09/01 02:12:36;;;;;;;5.65;3.95;;;;;;;;;;5028269;28;20022;-74
2022/09/01 02:15:02;;;;;;;5.07;4.25;;;;;;;;;;5037846;28;20274;-74
2022/09/01 02:17:28;;;;;;;5.72;3.80;;;;;;;;;;5034556;28;20025;-73
2022/09/01 02:19:56;;;;;;;5.63;4.30;;;;;;;;;;5037385;28;20072;-71
2022/09/01 02:22:22;;;;;;;7.30;3.97;;;;;;;;;;5031087;28;20483;-74
2022/09/01 02:24:51;;;;;;;5.10;3.92;;;;;;;;;;5031384;28;20124;-74
2022/09/01 02:27:22;;;;;;;8.88;4.30;;;;;;;;;;5030963;28;20033;-74
2022/09/01 02:29:49;;;;;;;4.70;3.95;;;;;;;;;;5036335;28;20029;-73
2022/09/01 02:32:20;;;;;;;5.63;3.92;;;;;;;;;;5029646;28;20377;-73
2022/09/01 02:34:52;;;;;;;4.25;3.53;;;;;;;;;;5038169;28;20049;-73
2022/09/01 02:37:19;;;;;;;;;;;;;;;;;;5037025;28;20056;-74
2022/09/01 02:39:45;;;;;;;5.65;4.07;;;;;;;;;;5031098;28;19905;-73
2022/09/01 02:42:13;;;;;;;4.93;4.05;;;;;;;;;;5031157;28;20096;-74
2022/09/01 02:44:39;;;;;;;8.05;4.32;;;;;;;;;;5029681;28;20029;-73
2022/09/01 02:47:08;;;;;;;4.22;3.63;;;;;;;;;;5030853;28;20053;-72
2022/09/01 02:49:34;;;;;;;7.50;3.50;;;;;;;;;;5030895;28;20109;-73
2022/09/01 02:52:01;;;;;;;6.15;4.15;;;;;;;;;;5030999;28;20021;-71
2022/09/01 02:54:28;;;;;;;5.45;4.35;;;;;;;;;;5030973;28;20045;-73
2022/09/01 02:56:55;;;;;;;5.82;4.45;;;;;;;;;;5031040;28;20021;-74
2022/09/01 02:59:22;;;;;;;5.38;4.07;;;;;;;;;;5036557;28;20021;-73
2022/09/01 03:01:49;;;;;;;5.93;4.03;;;;;;;;;;5031202;28;20033;-73
2022/09/01 03:04:16;;;;;;;6.63;4.45;;;;;;;;;;5029908;28;20175;-72
2022/09/01 03:06:42;;;;;;;12.35;7.38;;;;;;;;;;5029898;28;20044;-73
2022/09/01 03:09:10;;;;;;;103.50;49.55;;;;;;;;;;5030610;28;20041;-74
2022/09/01 03:11:38;;;;;;;661.88;368.80;;;;;;;;;;5029613;28;20041;-74
2022/09/01 03:14:06;;;;;;;222.30;100.03;;;;;;;;;;5030865;28;20029;-74
2022/09/01 03:16:33;;;;;;;574.55;338.75;;;;;;;;;;5045029;28;20025;-74
2022/09/01 03:18:59;;;;;;;58.22;29.58;;;;;;;;;;5040044;28;20025;-72
2022/09/01 03:21:25;;;;;;;37.30;17.48;;;;;;;;;;5034642;28;20026;-73
2022/09/01 03:23:51;;;;;;;28.25;13.02;;;;;;;;;;5033262;28;20385;-73
2022/09/01 03:26:20;;;;;;;9.82;6.45;;;;;;;;;;5034171;28;20399;-72
2022/09/01 03:28:47;;;;;;;6.47;4.25;;;;;;;;;;5052563;22;20045;-75
2022/09/01 03:31:15;;;;;;;7.65;5.00;;;;;;;;;;5047373;28;20088;-75
2022/09/01 03:33:42;;;;;;;14.07;7.05;;;;;;;;;;5034276;28;20022;-74
2022/09/01 03:36:17;;;;;;;15.38;8.20;;;;;;;;;;5034170;28;20072;-74
2022/09/01 03:38:47;;;;;;;6.60;4.90;;;;;;;;;;5033842;28;20116;-76
2022/09/01 03:41:15;;;;;;;5.82;4.47;;;;;;;;;;5053359;28;20017;-76
2022/09/01 03:43:42;;;;;;;6.93;4.50;;;;;;;;;;5052903;28;20021;-76
2022/09/01 03:46:09;;;;;;;9.68;4.93;;;;;;;;;;5054269;28;20379;-75
2022/09/01 03:48:38;;;;;;;7.68;4.00;;;;;;;;;;5052551;28;20060;-76
2022/09/01 03:51:05;;;;;;;7.22;5.10;;;;;;;;;;5053981;28;20025;-76
2022/09/01 03:53:33;;;;;;;6.78;4.97;;;;;;;;;;5054016;28;20021;-75
2022/09/01 03:55:59;;;;;;;6.53;4.40;;;;;;;;;;5053839;28;20053;-77
2022/09/01 03:58:25;;;;;;;8.65;4.65;;;;;;;;;;5053685;28;20033;-77
2022/09/01 04:01:00;;;;;;;5.72;4.20;;;;;;;;;;5052480;28;20033;-77
2022/09/01 04:03:30;;;;;;;8.05;4.82;;;;;;;;;;5054139;28;20025;-77
2022/09/01 04:05:59;;;;;;;9.57;5.13;;;;;;;;;;5053254;28;20033;-77
2022/09/01 04:08:29;;;;;;;7.82;4.85;;;;;;;;;;5052430;28;20425;-77
2022/09/01 04:10:57;;;;;;;8.43;4.85;;;;;;;;;;5052254;28;21298;-76
2022/09/01 04:13:25;;;;;;;9.93;5.45;;;;;;;;;;5053615;28;20041;-77
2022/09/01 04:15:51;;;;;;;7.45;5.13;;;;;;;;;;5050066;28;20048;-77
2022/09/01 04:18:21;;;;;;;9.40;4.55;;;;;;;;;;5053476;28;20109;-76
2022/09/01 04:20:51;;;;;;;7.28;5.00;;;;;;;;;;5053562;28;20425;-76
2022/09/01 04:23:32;;;;;;;7.75;5.28;;;;;;;;;;5052479;28;20021;-77
2022/09/01 04:26:10;;;;;;;9.85;4.78;;;;;;;;;;5053151;28;20021;-75
2022/09/01 04:28:45;;;;;;;10.52;5.32;;;;;;;;;;5052482;28;20029;-76
2022/09/01 04:31:16;;;;;;;7.85;4.60;;;;;;;;;;5053416;28;20033;-77
2022/09/01 04:33:45;;;;;;;7.53;4.00;;;;;;;;;;5052367;28;20029;-75
2022/09/01 04:36:18;;;;;;;6.22;4.43;;;;;;;;;;5053186;28;20439;-76
2022/09/01 04:38:44;;;;;;;8.68;4.25;;;;;;;;;;5053433;28;20041;-77
2022/09/01 04:41:16;;;;;;;5.63;3.80;;;;;;;;;;5051684;28;20021;-77
2022/09/01 04:43:46;;;;;;;4.75;3.78;;;;;;;;;;5053221;28;20056;-76
2022/09/01 04:46:15;;;;;;;11.73;4.70;;;;;;;;;;5052888;28;20072;-76
2022/09/01 04:48:43;;;;;;;6.15;3.67;;;;;;;;;;5052815;28;20024;-76
2022/09/01 04:51:11;;;;;;;8.88;3.78;;;;;;;;;;5052681;28;20021;-76
2022/09/01 04:53:47;;;;;;;5.47;3.35;;;;;;;;;;5053369;28;20031;-77
2022/09/01 04:56:14;;;;;;;6.05;3.70;;;;;;;;;;5052240;28;20461;-77
2022/09/01 04:58:40;;;;;;;3.80;3.13;;;;;;;;;;5048232;28;20022;-77
2022/09/01 05:01:14;;;;;;;4.82;3.63;;;;;;;;;;5049670;28;20033;-75
2022/09/01 05:03:40;;;;;;;8.32;3.33;;;;;;;;;;5053201;28;20041;-75
2022/09/01 05:06:12;;;;;;;3.80;3.40;;;;;;;;;;5051493;28;20025;-77
2022/09/01 05:08:40;;;;;;;5.90;3.33;;;;;;;;;;5052328;28;20036;-76
2022/09/01 05:11:06;;;;;;;7.50;4.10;;;;;;;;;;5051473;28;20028;-76
2022/09/01 05:13:34;;;;;;;7.05;3.70;;;;;;;;;;5051693;28;20036;-76
2022/09/01 05:16:02;;;;;;;5.97;4.05;;;;;;;;;;5052183;28;20029;-77
2022/09/01 05:18:28;;;;;;;6.10;4.05;;;;;;;;;;5051042;28;20021;-77
2022/09/01 05:20:56;;;;;;;6.78;3.50;;;;;;;;;;5052856;28;20492;-77
2022/09/01 05:23:22;;;;;;;5.50;3.60;;;;;;;;;;5051318;28;20021;-77
2022/09/01 05:25:51;;;;;;;9.43;4.13;;;;;;;;;;5051680;28;20406;-77
2022/09/01 05:28:18;;;;;;;10.55;4.78;;;;;;;;;;5051979;28;20390;-75
2022/09/01 05:30:45;;;;;;;8.25;4.90;;;;;;;;;;5050726;28;20033;-76
2022/09/01 05:33:15;;;;;;;10.73;4.97;;;;;;;;;;5050643;28;20021;-77
2022/09/01 05:35:42;;;;;;;9.00;5.65;;;;;;;;;;5051742;28;20090;-76
2022/09/01 05:38:14;;;;;;;13.35;5.68;;;;;;;;;;5050010;28;20380;-76
2022/09/01 05:40:41;;;;;;;11.85;5.90;;;;;;;;;;5051629;28;20095;-75
2022/09/01 05:43:10;;;;;;;13.38;5.55;;;;;;;;;;5045871;28;20036;-77
2022/09/01 05:45:41;;;;;;;15.77;6.40;;;;;;;;;;5051213;28;20479;-78
2022/09/01 05:48:10;;;;;;;12.48;5.80;;;;;;;;;;5052607;28;20143;-78
2022/09/01 05:50:40;;;;;;;16.80;6.20;;;;;;;;;;5051689;28;20025;-75
2022/09/01 05:53:09;;;;;;;13.73;6.20;;;;;;;;;;5054048;28;20025;-77
2022/09/01 05:55:37;;;;;;;8.95;5.32;;;;;;;;;;5054028;28;20024;-77
2022/09/01 05:58:04;;;;;;;12.00;5.68;;;;;;;;;;5039423;28;20481;-75
2022/09/01 06:00:33;;;;;;;10.55;4.82;;;;;;;;;;5044769;28;20025;-76
2022/09/01 06:03:03;;;;;;;11.00;5.45;;;;;;;;;;5045037;28;20114;-75
2022/09/01 06:05:30;;;;;;;9.88;4.38;;;;;;;;;;5050764;28;20068;-76
2022/09/01 06:07:57;;;;;;;9.00;4.55;;;;;;;;;;5051164;28;20078;-75
2022/09/01 06:10:23;;;;;;;9.50;4.88;;;;;;;;;;5050079;28;20071;-76
2022/09/01 06:12:50;;;;;;;10.95;4.93;;;;;;;;;;5050181;28;20340;-76
2022/09/01 06:15:19;;;;;;;9.93;4.97;;;;;;;;;;5051192;28;20506;-77
2022/09/01 06:17:46;;;;;;;8.57;4.60;;;;;;;;;;5051074;28;20111;-76
2022/09/01 06:20:12;;;;;;;7.82;4.03;;;;;;;;;;5049956;28;20079;-75
2022/09/01 06:22:41;;;;;;;10.10;4.47;;;;;;;;;;5050476;28;20132;-77
2022/09/01 06:25:12;;;;;;;8.40;3.90;;;;;;;;;;5049994;28;20113;-76
2022/09/01 06:27:43;;;;;;;6.63;4.47;;;;;;;;;;5050610;28;20111;-77
2022/09/01 06:30:14;;;;;;;14.60;4.70;;;;;;;;;;5051353;28;20112;-77
2022/09/01 06:32:42;;;;;;;;;;;;;;;;;;5052461;28;20128;-76
2022/09/01 06:35:11;;;;;;;6.88;3.72;;;;;;;;;;5050868;28;19951;-77
2022/09/01 06:37:41;;;;;;;6.93;4.05;;;;;;;;;;5051084;28;20025;-78
2022/09/01 06:40:15;;;;;;;7.20;4.15;;;;;;;;;;5049713;28;20052;-77
2022/09/01 06:42:49;;;;;;;8.25;3.80;;;;;;;;;;5051871;28;20397;-77
2022/09/01 06:45:17;;;;;;;11.85;4.03;;;;;;;;;;5050129;28;20033;-77
2022/09/01 06:47:46;;;;;;;4.93;3.35;;;;;;;;;;5050476;28;20075;-76
2022/09/01 06:50:13;;;;;;;6.45;3.92;;;;;;;;;;5052596;28;20056;-76
2022/09/01 06:52:41;;;;;;;6.93;3.28;;;;;;;;;;5055105;28;20051;-75
2022/09/01 06:55:07;;;;;;;6.70;3.63;;;;;;;;;;5058003;28;20036;-76
2022/09/01 06:57:36;;;;;;;9.88;3.78;;;;;;;;;;5057544;28;20036;-77
2022/09/01 07:00:06;;;;;;;6.85;3.67;;;;;;;;;;5056221;28;20025;-77
2022/09/01 07:02:32;;;;;;;6.47;3.58;;;;;;;;;;5059920;28;20108;-76
2022/09/01 07:04:58;;;;;;;7.45;2.83;;;;;;;;;;5058957;28;20017;-76
2022/09/01 07:07:29;;;;;;;7.70;3.35;;;;;;;;;;5055673;28;20025;-77
2022/09/01 07:09:55;;;;;;;5.60;3.63;;;;;;;;;;5055598;28;20025;-75
2022/09/01 07:12:22;;;;;;;6.38;3.70;;;;;;;;;;5055811;28;20031;-76
2022/09/01 07:14:48;;;;;;;12.13;4.25;;;;;;;;;;5056483;28;20079;-76
2022/09/01 07:17:14;;;;;;;9.43;4.03;;;;;;;;;;5051269;28;20029;-74
2022/09/01 07:19:40;;;;;;;9.80;4.00;;;;;;;;;;5050549;28;20024;-73
2022/09/01 07:22:06;;;;;;;5.25;3.15;;;;;;;;;;5054701;28;20021;-73
2022/09/01 07:24:33;;;;;;;8.35;3.88;;;;;;;;;;5054341;28;20029;-76
2022/09/01 07:26:59;;;;;;;8.13;4.00;;;;;;;;;;5054817;28;20036;-75
2022/09/01 07:29:31;;;;;;;8.90;3.13;;;;;;;;;;5047547;28;20032;-76
2022/09/01 07:31:58;;;;;;;9.73;3.60;;;;;;;;;;5054430;28;20025;-75
2022/09/01 07:34:26;;;;;;;13.90;4.15;;;;;;;;;;5052441;28;20115;-76
2022/09/01 07:36:55;;;;;;;7.10;3.88;;;;;;;;;;5054104;28;20021;-77
2022/09/01 07:39:21;;;;;;;5.65;3.40;;;;;;;;;;5052292;28;20024;-76
2022/09/01 07:41:47;;;;;;;4.72;3.40;;;;;;;;;;5041795;28;20024;-76
2022/09/01 07:44:16;;;;;;;11.30;3.63;;;;;;;;;;5047905;28;20037;-77
2022/09/01 07:46:42;;;;;;;7.47;2.80;;;;;;;;;;5052819;28;20025;-73
2022/09/01 07:49:08;;;;;;;8.10;3.17;;;;;;;;;;5048605;28;20037;-75
2022/09/01 07:51:34;;;;;;;11.18;3.10;;;;;;;;;;5050906;28;20021;-74
2022/09/01 07:54:01;;;;;;;7.63;3.47;;;;;;;;;;5045918;28;20044;-73
2022/09/01 07:56:29;;;;;;;5.80;3.13;;;;;;;;;;5052653;28;20078;-74
2022/09/01 07:58:56;;;;;;;5.80;3.35;;;;;;;;;;5046257;28;20066;-75
2022/09/01 08:01:23;;;;;;;7.00;3.20;;;;;;;;;;5045471;28;20060;-74
2022/09/01 08:03:51;;;;;;;8.63;3.60;;;;;;;;;;5053599;28;20032;-74
2022/09/01 08:06:20;;;;;;;5.50;3.70;;;;;;;;;;5048898;28;20013;-73
2022/09/01 08:08:49;;;;;;;6.78;3.05;;;;;;;;;;5052638;28;20017;-74
2022/09/01 08:11:21;;;;;;;5.35;2.95;;;;;;;;;;5051770;28;20031;-74
2022/09/01 08:13:48;;;;;;;8.27;3.42;;;;;;;;;;5052070;28;20108;-74
2022/09/01 08:16:14;;;;;;;5.55;3.20;;;;;;;;;;5048099;28;20072;-74
2022/09/01 08:18:41;;;;;;;7.43;3.60;;;;;;;;;;5050601;28;20021;-74
2022/09/01 08:21:08;;;;;;;7.03;3.78;;;;;;;;;;5049744;28;20391;-74
2022/09/01 08:23:36;;;;;;;5.50;2.97;;;;;;;;;;5051437;28;20032;-74
2022/09/01 08:26:04;;;;;;;11.48;3.25;;;;;;;;;;5053614;28;20032;-73
2022/09/01 08:28:30;;;;;;;4.85;3.35;;;;;;;;;;5051201;28;20036;-74
2022/09/01 08:30:58;;;;;;;6.85;3.55;;;;;;;;;;5051756;28;20033;-73
2022/09/01 08:33:25;;;;;;;18.25;3.72;;;;;;;;;;5052395;28;20035;-73
2022/09/01 08:35:51;;;;;;;9.40;3.22;;;;;;;;;;5051948;28;20029;-74
2022/09/01 08:38:17;;;;;;;7.15;3.38;;;;;;;;;;5051286;28;20056;-75
2022/09/01 08:40:50;;;;;;;7.93;3.55;;;;;;;;;;5051686;28;20120;-75
2022/09/01 08:43:21;;;;;;;4.28;2.90;;;;;;;;;;5053980;28;20056;-75
2022/09/01 08:45:47;;;;;;;5.97;3.22;;;;;;;;;;5054189;28;20021;-73
2022/09/01 08:48:15;;;;;;;9.88;3.72;;;;;;;;;;5053516;28;20032;-73
2022/09/01 08:50:43;;;;;;;7.00;3.70;;;;;;;;;;5052878;28;20033;-73
2022/09/01 08:53:14;;;;;;;4.88;3.22;;;;;;;;;;5051220;28;20105;-74
2022/09/01 08:55:42;;;;;;;10.27;3.88;;;;;;;;;;5052326;28;20131;-74
2022/09/01 08:58:10;;;;;;;6.97;4.45;;;;;;;;;;5051916;28;20021;-74
2022/09/01 09:00:42;;;;;;;5.55;3.45;;;;;;;;;;5045533;28;20068;-74
2022/09/01 09:03:08;;;;;;;;;;;;;;;;;;5053247;28;20017;-74
2022/09/01 09:05:38;;;;;;;9.57;4.05;;;;;;;;;;5052569;28;19974;-74
2022/09/01 09:08:04;;;;;;;6.25;3.40;;;;;;;;;;5049846;28;20063;-73
2022/09/01 09:10:37;;;;;;;8.60;3.65;;;;;;;;;;5051536;28;20033;-74
2022/09/01 09:13:21;;;;;;;9.63;3.47;;;;;;;;;;5037668;28;20025;-73
2022/09/01 09:15:53;;;;;;;12.85;4.32;;;;;;;;;;5047469;28;20083;-73
2022/09/01 09:18:25;;;;;;;8.32;4.00;;;;;;;;;;5050415;28;20018;-74
2022/09/01 09:20:52;;;;;;;7.75;3.15;;;;;;;;;;5050406;28;20078;-75
2022/09/01 09:23:31;;;;;;;7.22;3.30;;;;;;;;;;5050568;28;20069;-74
2022/09/01 09:25:57;;;;;;;9.90;3.20;;;;;;;;;;5049442;28;20457;-73
2022/09/01 09:31:17;;;;;;;9.35;3.78;;;;;;;;;;5061971;22;20038;-71
2022/09/01 09:33:43;;;;;;;9.02;3.30;;;;;;;;;;5031821;28;20481;-73
2022/09/01 09:36:15;;;;;;;5.13;3.60;;;;;;;;;;5030473;28;20033;-72
2022/09/01 09:38:41;;;;;;;5.55;3.03;;;;;;;;;;5032147;28;20087;-72
2022/09/01 09:41:13;;;;;;;7.80;3.05;;;;;;;;;;5049767;28;20020;-71
2022/09/01 09:43:45;;;;;;;7.55;2.47;;;;;;;;;;5052080;28;20029;-71
2022/09/01 09:46:20;;;;;;;6.60;2.92;;;;;;;;;;5051644;28;20027;-72
2022/09/01 09:48:46;;;;;;;9.98;3.33;;;;;;;;;;5050243;28;20083;-72
2022/09/01 09:51:17;;;;;;;9.32;2.95;;;;;;;;;;5051288;28;20163;-70
2022/09/01 09:53:43;;;;;;;6.07;3.30;;;;;;;;;;5051278;28;20399;-72
2022/09/01 09:56:16;;;;;;;10.38;3.20;;;;;;;;;;5051653;28;20029;-71
2022/09/01 09:58:42;;;;;;;6.88;3.03;;;;;;;;;;5051154;28;20017;-71
2022/09/01 10:01:28;;;;;;;7.28;2.90;;;;;;;;;;5051263;28;20418;-71
2022/09/01 10:03:54;;;;;;;6.60;2.75;;;;;;;;;;5051461;28;20423;-71
2022/09/01 10:06:32;;;;;;;6.93;3.00;;;;;;;;;;5051473;28;20067;-71
2022/09/01 10:08:59;;;;;;;6.13;2.80;;;;;;;;;;5050857;28;20028;-69
2022/09/01 10:11:28;;;;;;;8.93;2.78;;;;;;;;;;5052194;28;20013;-68
2022/09/01 10:13:54;;;;;;;5.25;2.72;;;;;;;;;;5053260;28;20020;-71
2022/09/01 10:16:29;;;;;;;5.72;2.97;;;;;;;;;;5053233;28;20017;-71
2022/09/01 10:18:59;;;;;;;10.48;2.97;;;;;;;;;;5052364;28;20048;-71
2022/09/01 10:21:30;;;;;;;8.05;2.88;;;;;;;;;;5038207;28;20103;-70
2022/09/01 10:23:56;;;;;;;6.53;2.80;;;;;;;;;;5049554;28;20034;-72
2022/09/01 10:26:32;;;;;;;5.93;2.45;;;;;;;;;;5050443;28;20044;-73
2022/09/01 10:29:07;;;;;;;9.02;3.25;;;;;;;;;;5050841;28;20049;-72
2022/09/01 10:31:34;;;;;;;11.35;2.97;;;;;;;;;;5051031;28;20114;-71
2022/09/01 10:34:04;;;;;;;8.93;3.10;;;;;;;;;;5049286;28;20029;-71
2022/09/01 10:36:31;;;;;;;7.03;2.90;;;;;;;;;;5049843;28;20044;-70
2022/09/01 10:38:57;;;;;;;7.40;2.90;;;;;;;;;;5050612;28;20021;-70
2022/09/01 10:41:43;;;;;;;7.45;2.53;;;;;;;;;;5049178;28;20018;-69
2022/09/01 10:44:11;;;;;;;9.30;2.75;;;;;;;;;;5049433;28;20088;-70
2022/09/01 10:46:39;;;;;;;8.10;2.83;;;;;;;;;;5051016;28;20463;-71
2022/09/01 10:49:17;;;;;;;5.35;2.28;;;;;;;;;;5050540;28;20021;-71
2022/09/01 10:51:44;;;;;;;3.63;2.40;;;;;;;;;;5052695;28;20021;-71
2022/09/01 10:54:30;;;;;;;8.68;2.47;;;;;;;;;;5050575;28;20029;-69
2022/09/01 10:57:00;;;;;;;5.40;2.70;;;;;;;;;;5050167;28;20053;-70
2022/09/01 10:59:27;;;;;;;4.68;2.50;;;;;;;;;;5050098;28;20505;-72
2022/09/01 11:01:53;;;;;;;8.77;2.00;;;;;;;;;;5049548;28;20071;-69
2022/09/01 11:04:19;;;;;;;4.80;1.95;;;;;;;;;;5051002;28;20018;-70
2022/09/01 11:06:55;;;;;;;3.60;2.35;;;;;;;;;;5050465;28;20056;-71
2022/09/01 11:09:29;;;;;;;4.18;2.05;;;;;;;;;;5050218;28;20028;-71
2022/09/01 11:12:14;;;;;;;6.45;2.50;;;;;;;;;;5051033;28;20056;-71
2022/09/01 11:14:51;;;;;;;5.57;1.98;;;;;;;;;;5050874;28;20021;-71
2022/09/01 11:17:19;;;;;;;6.05;2.03;;;;;;;;;;5050184;28;20033;-71
2022/09/01 11:19:45;;;;;;;5.07;2.17;;;;;;;;;;5050853;28;20017;-70
2022/09/01 11:22:31;;;;;;;6.53;2.25;;;;;;;;;;5050841;28;20028;-72
2022/09/01 11:25:13;;;;;;;5.20;2.15;;;;;;;;;;5039117;28;20013;-72
2022/09/01 11:27:48;;;;;;;6.20;1.70;;;;;;;;;;5049018;28;20029;-70
2022/09/01 11:30:17;;;;;;;2.97;1.48;;;;;;;;;;5050402;28;20033;-70
2022/09/01 11:32:46;;;;;;;5.05;1.98;;;;;;;;;;5050618;28;20445;-71
2022/09/01 11:35:15;;;;;;;4.07;2.03;;;;;;;;;;5050487;28;20028;-71
2022/09/01 11:37:42;;;;;;;8.25;1.95;;;;;;;;;;5053230;28;20032;-72
2022/09/01 11:40:09;;;;;;;7.75;2.05;;;;;;;;;;5052919;28;20033;-71
2022/09/01 11:42:38;;;;;;;3.88;2.00;;;;;;;;;;5053990;28;20049;-70
2022/09/01 11:45:16;;;;;;;5.93;1.70;;;;;;;;;;5054363;28;20017;-70
2022/09/01 11:47:45;;;;;;;4.63;1.80;;;;;;;;;;5053663;28;20032;-71
2022/09/01 11:50:20;;;;;;;4.63;1.65;;;;;;;;;;5054117;28;20029;-68
2022/09/01 11:52:54;;;;;;;5.53;1.48;;;;;;;;;;5053578;28;20031;-70
2022/09/01 11:55:30;;;;;;;4.78;1.75;;;;;;;;;;5052611;28;20032;-69
2022/09/01 11:57:57;;;;;;;6.03;1.70;;;;;;;;;;5053232;28;20033;-74
2022/09/01 12:00:27;;;;;;;6.00;1.95;;;;;;;;;;5052100;28;20021;-70
2022/09/01 12:02:53;;;;;;;3.85;1.70;;;;;;;;;;5051968;28;20096;-70
2022/09/01 12:05:31;;;;;;;4.55;1.40;;;;;;;;;;5045897;28;20509;-69
2022/09/01 12:07:57;;;;;;;3.25;1.45;;;;;;;;;;5040240;28;20032;-70
2022/09/01 12:10:26;;;;;;;2.13;1.50;;;;;;;;;;5052050;28;20029;-69
2022/09/01 12:13:12;;;;;;;4.93;1.58;;;;;;;;;;5051753;28;20020;-71
2022/09/01 12:15:41;;;;;;;8.45;2.05;;;;;;;;;;5053063;28;20037;-71
2022/09/01 12:18:13;;;;;;;4.22;2.00;;;;;;;;;;5053451;28;20029;-73
2022/09/01 12:20:39;;;;;;;4.53;2.25;;;;;;;;;;5053449;28;20028;-71
2022/09/01 12:23:17;;;;;;;3.45;1.80;;;;;;;;;;5053538;28;20424;-71
2022/09/01 12:25:44;;;;;;;4.45;1.33;;;;;;;;;;5053633;28;20025;-71
2022/09/01 12:28:11;;;;;;;3.83;1.80;;;;;;;;;;5053248;28;20097;-71
2022/09/01 12:30:39;;;;;;;7.90;2.28;;;;;;;;;;5052906;28;20036;-69
2022/09/01 12:33:06;;;;;;;11.80;2.17;;;;;;;;;;5053300;28;20052;-70
2022/09/01 12:35:32;;;;;;;4.20;1.38;;;;;;;;;;5053245;28;20017;-71
2022/09/01 12:38:17;;;;;;;3.58;1.08;;;;;;;;;;5052687;28;20112;-72
2022/09/01 12:40:44;;;;;;;4.70;2.05;;;;;;;;;;5052818;28;20031;-71
2022/09/01 12:43:10;;;;;;;4.60;1.75;;;;;;;;;;5053231;28;20100;-68
2022/09/01 12:45:40;;;;;;;3.85;1.90;;;;;;;;;;5052961;28;20017;-70
2022/09/01 12:48:23;;;;;;;6.65;2.13;;;;;;;;;;5037543;28;20021;-71
2022/09/01 12:50:49;;;;;;;3.42;1.55;;;;;;;;;;5036148;28;20063;-71
2022/09/01 12:53:18;;;;;;;2.78;1.63;;;;;;;;;;5049297;28;20028;-70
2022/09/01 12:55:55;;;;;;;3.90;1.20;;;;;;;;;;5047669;28;20387;-70
2022/09/01 12:58:26;;;;;;;3.95;1.20;;;;;;;;;;5053051;28;20383;-71
2022/09/01 13:00:57;;;;;;;1.65;0.93;;;;;;;;;;5051161;28;20021;-73
2022/09/01 13:03:26;;;;;;;2.90;1.35;;;;;;;;;;5045987;28;20147;-72
2022/09/01 13:05:53;;;;;;;1.88;1.13;;;;;;;;;;5052058;28;20037;-71
2022/09/01 13:08:27;;;;;;;3.15;1.60;;;;;;;;;;5051624;28;20028;-71
2022/09/01 13:11:03;;;;;;;2.08;1.10;;;;;;;;;;5050336;28;20170;-71
2022/09/01 13:13:29;;;;;;;2.70;1.20;;;;;;;;;;5050701;28;20162;-70
2022/09/01 13:16:00;;;;;;;2.08;0.82;;;;;;;;;;5049734;28;20387;-71
2022/09/01 13:18:27;;;;;;;2.33;1.20;;;;;;;;;;5050051;28;20025;-71
2022/09/01 13:20:53;;;;;;;3.67;1.20;;;;;;;;;;5050020;28;20670;-70
2022/09/01 13:23:20;;;;;;;3.17;1.27;;;;;;;;;;5050633;28;20032;-72
2022/09/01 13:25:46;;;;;;;3.35;1.25;;;;;;;;;;5044526;28;20025;-71
2022/09/01 13:28:12;;;;;;;3.70;1.20;;;;;;;;;;5051570;28;20044;-71
2022/09/01 13:30:39;;;;;;;1.02;0.88;;;;;;;;;;5048981;28;20028;-70
2022/09/01 13:33:05;;;;;;;4.10;1.08;;;;;;;;;;5048739;28;20056;-70
2022/09/01 13:35:31;;;;;;;2.33;1.45;;;;;;;;;;5050017;28;20052;-71
2022/09/01 13:37:57;;;;;;;1.58;1.30;;;;;;;;;;5047570;28;20079;-71
2022/09/01 13:40:23;;;;;;;3.10;1.15;;;;;;;;;;5055117;28;20021;-71
2022/09/01 13:42:50;;;;;;;2.85;1.38;;;;;;;;;;5043061;28;20020;-71
2022/09/01 13:45:18;;;;;;;2.25;1.00;;;;;;;;;;5040358;28;20025;-72
2022/09/01 13:47:48;;;;;;;2.42;1.27;;;;;;;;;;5048694;28;20028;-72
2022/09/01 13:50:17;;;;;;;2.88;1.60;;;;;;;;;;5051603;28;20021;-72
2022/09/01 13:52:44;;;;;;;1.33;0.93;;;;;;;;;;5051103;28;20035;-73
2022/09/01 13:55:11;;;;;;;2.70;1.10;;;;;;;;;;5046470;28;20502;-72
2022/09/01 13:57:37;;;;;;;2.47;1.00;;;;;;;;;;5036860;28;20120;-70
2022/09/01 14:00:06;;;;;;;6.63;1.20;;;;;;;;;;5045159;28;20383;-71
2022/09/01 14:02:35;;;;;;;2.03;1.27;;;;;;;;;;5033467;28;20025;-71
2022/09/01 14:05:01;;;;;;;2.05;0.80;;;;;;;;;;5040073;28;20028;-72
2022/09/01 14:07:28;;;;;;;3.15;0.75;;;;;;;;;;5047567;28;20028;-70
2022/09/01 14:09:55;;;;;;;1.67;0.80;;;;;;;;;;5049297;28;20017;-70
2022/09/01 14:12:21;;;;;;;1.92;0.90;;;;;;;;;;5050398;28;20040;-70
2022/09/01 14:14:47;;;;;;;3.95;0.82;;;;;;;;;;5051572;28;20025;-70
2022/09/01 14:17:13;;;;;;;3.03;1.20;;;;;;;;;;5051087;28;20025;-70
2022/09/01 14:19:40;;;;;;;1.52;1.00;;;;;;;;;;5050315;28;20024;-70
2022/09/01 14:22:07;;;;;;;1.13;0.98;;;;;;;;;;5049341;28;20033;-72
2022/09/01 14:24:36;;;;;;;2.70;1.05;;;;;;;;;;5039807;28;20021;-71
2022/09/01 14:27:11;;;;;;;2.65;0.95;;;;;;;;;;5046230;28;20103;-71
2022/09/01 14:29:38;;;;;;;2.03;0.90;;;;;;;;;;5047153;28;20399;-71
2022/09/01 14:32:06;;;;;;;1.40;1.10;;;;;;;;;;5048477;28;20060;-71
2022/09/01 14:34:32;;;;;;;2.13;1.27;;;;;;;;;;5049080;28;20048;-72
2022/09/01 14:36:58;;;;;;;1.98;1.13;;;;;;;;;;5048992;28;20029;-71
2022/09/01 14:39:25;;;;;;;2.75;1.10;;;;;;;;;;5050746;28;20013;-71
2022/09/01 14:41:51;;;;;;;2.42;0.93;;;;;;;;;;5044731;28;20044;-72
2022/09/01 14:44:17;;;;;;;3.28;1.00;;;;;;;;;;5045906;28;20075;-71
2022/09/01 14:46:45;;;;;;;1.65;1.00;;;;;;;;;;5049472;28;20387;-71
2022/09/01 14:49:11;;;;;;;4.38;1.00;;;;;;;;;;5048209;28;20468;-71
2022/09/01 14:51:37;;;;;;;2.67;1.30;;;;;;;;;;5043868;28;20116;-70
2022/09/01 14:54:03;;;;;;;5.70;1.45;;;;;;;;;;5050347;28;20029;-72
2022/09/01 14:56:29;;;;;;;4.20;1.00;;;;;;;;;;5049925;28;20045;-71